Time;durP1;ratioP1;P1;durP2;ratioP2;P2;SDS_P1;SDS_P2;PMS_P1;PMS_P2;Temp;Humidity;BMP_temperature;BMP_pressure;BME280_temperature;BME280_humidity;BME280_pressure;Samples;Min_cycle;Max_cycle;Signal;HPM_P1;HPM_P2
2023/09/21 00:02:45;;;;;;;5.28;2.08;;;;;;;17.08;98.64;99798.09;4920595;29;20501;-95
2023/09/21 00:05:11;;;;;;;2.80;1.67;;;;;;;17.11;98.53;99796.69;4921390;29;20024;-94
2023/09/21 00:07:39;;;;;;;2.80;1.47;;;;;;;17.09;98.16;99793.41;4920102;29;20044;-94
2023/09/21 00:10:08;;;;;;;6.13;1.80;;;;;;;17.09;98.27;99794.22;4905098;29;20038;-94
2023/09/21 00:12:38;;;;;;;4.50;2.30;;;;;;;17.09;98.05;99799.69;4920908;29;20122;-94
2023/09/21 00:15:29;;;;;;;4.95;2.00;;;;;;;17.09;98.02;99788.75;4921091;29;20035;-94
2023/09/21 00:17:58;;;;;;;3.38;1.92;;;;;;;17.08;98.75;99794.50;4905709;29;20175;-94
2023/09/21 00:20:42;;;;;;;6.37;1.93;;;;;;;17.09;98.39;99791.47;4920518;29;20023;-95
2023/09/21 00:23:13;;;;;;;5.20;2.05;;;;;;;17.09;97.76;99782.44;4921517;29;20036;-94
2023/09/21 00:25:57;;;;;;;5.03;1.85;;;;;;;17.08;97.92;99772.59;4920569;29;20032;-94
2023/09/21 00:28:29;;;;;;;2.55;1.55;;;;;;;17.05;98.10;99765.78;4890203;29;20052;-95
2023/09/21 00:30:58;;;;;;;6.50;1.67;;;;;;;17.06;98.01;99767.41;4920395;29;20040;-95
2023/09/21 00:33:28;;;;;;;3.40;1.70;;;;;;;17.06;97.73;99769.31;4920683;29;20034;-95
2023/09/21 00:36:09;;;;;;;2.97;1.65;;;;;;;17.07;97.69;99766.28;4920112;29;20050;-94
2023/09/21 00:38:35;;;;;;;4.28;1.80;;;;;;;17.09;97.11;99755.84;4905600;29;20040;-95
2023/09/21 00:41:04;;;;;;;2.42;1.77;;;;;;;17.11;97.39;99753.66;4920382;29;20563;-95
2023/09/21 00:43:52;;;;;;;4.00;1.70;;;;;;;17.14;97.17;99749.50;4920640;29;20039;-95
2023/09/21 00:46:39;;;;;;;3.43;1.30;;;;;;;17.19;96.25;99744.81;4920587;29;20031;-95
2023/09/21 00:49:37;;;;;;;4.47;1.70;;;;;;;17.26;95.88;99747.25;4905620;29;20035;-94
2023/09/21 00:52:05;;;;;;;3.47;1.55;;;;;;;17.32;95.25;99743.34;4920280;29;20118;-94
2023/09/21 00:54:33;;;;;;;6.30;1.83;;;;;;;17.34;94.97;99738.38;4920632;29;20060;-94
2023/09/21 00:57:07;;;;;;;4.38;1.70;;;;;;;17.38;94.43;99726.84;4920265;29;20040;-95
2023/09/21 00:59:52;;;;;;;3.50;1.50;;;;;;;17.42;94.36;99725.16;4919926;29;20405;-94
2023/09/21 01:02:30;;;;;;;2.80;1.60;;;;;;;17.46;93.41;99715.25;4904537;29;20040;-95
2023/09/21 01:04:56;;;;;;;3.55;1.38;;;;;;;17.52;92.44;99717.69;4904594;29;20036;-95
2023/09/21 01:07:32;;;;;;;2.78;1.50;;;;;;;17.60;91.94;99712.63;4920260;29;20114;-94
2023/09/21 01:09:58;;;;;;;6.40;1.60;;;;;;;17.64;91.42;99713.72;4890634;29;20036;-94
2023/09/21 01:12:27;;;;;;;4.17;1.70;;;;;;;17.74;90.40;99712.78;4937142;29;20043;-94
2023/09/21 01:15:20;;;;;;;2.67;1.48;;;;;;;17.81;90.64;99705.84;4922647;29;20036;-94
2023/09/21 01:17:51;;;;;;;4.22;2.00;;;;;;;17.84;89.40;99698.97;4924214;29;20031;-94
2023/09/21 01:20:30;;;;;;;1.97;1.40;;;;;;;17.90;88.76;99697.81;4908222;29;20060;-94
2023/09/21 01:23:22;;;;;;;3.53;1.50;;;;;;;17.96;89.30;99693.09;4909245;29;20032;-95
2023/09/21 01:26:18;;;;;;;;;;;;;;;;;;;;;
2023/09/21 01:29:04;;;;;;;;;;;;;;;;;;;;;
2023/09/21 01:31:34;;;;;;;4.65;1.35;;;;;;;18.10;86.91;99690.44;4925847;29;20032;-95
2023/09/21 01:34:20;;;;;;;4.00;1.40;;;;;;;18.15;87.04;99684.91;4924154;29;20027;-94
2023/09/21 01:36:48;;;;;;;3.83;1.45;;;;;;;18.12;86.38;99674.50;4904619;29;20048;-94
2023/09/21 01:39:19;;;;;;;4.93;1.70;;;;;;;18.11;86.40;99670.13;4920340;29;20067;-94
2023/09/21 01:41:58;;;;;;;3.00;1.30;;;;;;;18.18;85.32;99665.09;4920454;29;20068;-95
2023/09/21 01:44:40;;;;;;;3.83;1.75;;;;;;;18.18;85.65;99670.59;4921627;29;20067;-94
2023/09/21 01:47:11;;;;;;;2.77;1.33;;;;;;;18.19;85.16;99680.47;4920962;29;20115;-94
2023/09/21 01:49:58;;;;;;;2.67;1.38;;;;;;;18.17;85.78;99655.22;4905445;29;20539;-95
2023/09/21 01:55:20;;;;;;;2.65;1.35;;;;;;;18.14;85.21;99661.31;4914224;29;20043;-94
2023/09/21 01:58:01;;;;;;;4.70;1.77;;;;;;;18.16;84.83;99661.81;4905162;29;20131;-95
2023/09/21 02:00:34;;;;;;;5.43;1.60;;;;;;;18.13;84.82;99657.75;4905692;29;20047;-94
2023/09/21 02:03:14;;;;;;;;;;;;;;;;;;;;;
2023/09/21 02:05:50;;;;;;;2.53;1.25;;;;;;;18.12;85.23;99663.53;4922111;29;20036;-95
2023/09/21 02:08:21;;;;;;;3.63;1.30;;;;;;;18.10;84.89;99663.81;4919496;29;20067;-94
2023/09/21 02:11:09;;;;;;;;;;;;;;;;;;;;;
2023/09/21 02:13:37;;;;;;;4.90;1.73;;;;;;;18.04;85.27;99649.34;4920206;29;20082;-94
2023/09/21 02:16:03;;;;;;;2.83;1.48;;;;;;;18.04;85.17;99645.78;4920101;29;20028;-94
2023/09/21 02:18:35;;;;;;;3.25;1.60;;;;;;;18.08;84.63;99662.47;4919898;29;20036;-94
2023/09/21 02:21:08;;;;;;;1.88;1.23;;;;;;;18.09;84.83;99651.22;4920283;29;20079;-94
2023/09/21 02:23:45;;;;;;;;;;;;;;;;;;;;;
2023/09/21 02:26:19;;;;;;;3.50;1.55;;;;;;;18.05;84.99;99648.25;4923135;29;20020;-94
2023/09/21 02:28:53;;;;;;;2.97;1.35;;;;;;;18.02;84.99;99637.84;4904566;29;20036;-94
2023/09/21 02:31:21;;;;;;;3.95;1.40;;;;;;;18.05;84.61;99634.53;4920643;29;20091;-93
2023/09/21 02:33:47;;;;;;;4.65;1.40;;;;;;;18.05;84.48;99630.94;4904505;29;20095;-94
2023/09/21 02:36:19;;;;;;;3.57;1.77;;;;;;;18.04;84.82;99635.63;4921335;29;20028;-94
2023/09/21 02:38:47;;;;;;;3.05;1.63;;;;;;;18.07;84.77;99631.50;4923334;29;20032;-94
2023/09/21 02:41:12;;;;;;;3.22;1.60;;;;;;;18.03;84.75;99627.69;4907139;29;20496;-94
2023/09/21 02:44:07;;;;;;;3.13;1.70;;;;;;;18.04;84.82;99619.16;4922693;29;20036;-95
2023/09/21 02:46:49;;;;;;;2.45;1.58;;;;;;;18.02;84.93;99624.13;4922202;29;20403;-95
2023/09/21 02:49:20;;;;;;;3.35;1.30;;;;;;;18.03;84.95;99619.47;4922477;29;20044;-94
2023/09/21 02:51:52;;;;;;;3.47;1.25;;;;;;;18.01;84.95;99629.91;4907080;29;20065;-94
2023/09/21 02:54:22;;;;;;;1.70;1.17;;;;;;;18.00;85.00;99636.53;4922134;29;20028;-94
2023/09/21 02:56:51;;;;;;;2.83;1.50;;;;;;;17.98;85.18;99631.31;4906113;29;20044;-94
2023/09/21 02:59:22;;;;;;;3.88;1.50;;;;;;;18.02;84.86;99624.13;4921945;29;20042;-94
2023/09/21 03:02:00;;;;;;;3.00;1.45;;;;;;;17.98;85.24;99623.09;4922573;29;20075;-95
2023/09/21 03:04:31;;;;;;;2.13;1.40;;;;;;;17.98;85.32;99616.75;4907040;29;20205;-94
2023/09/21 03:07:03;;;;;;;2.83;1.50;;;;;;;17.97;85.08;99621.44;4939077;29;20034;-94
2023/09/21 03:09:38;;;;;;;3.58;1.50;;;;;;;17.96;85.55;99613.50;4922037;29;20035;-94
2023/09/21 03:12:07;;;;;;;1.95;1.42;;;;;;;17.97;85.44;99613.22;4922277;29;20039;-94
2023/09/21 03:14:32;;;;;;;3.95;1.40;;;;;;;17.96;85.44;99610.78;4891402;29;20032;-94
2023/09/21 03:17:00;;;;;;;4.57;1.30;;;;;;;17.99;84.72;99613.72;4921761;29;20026;-95
2023/09/21 03:19:35;;;;;;;;;;;;;;;;;;;;;
2023/09/21 03:22:01;;;;;;;3.10;1.40;;;;;;;17.97;85.48;99602.25;4938881;29;20028;-95
2023/09/21 03:24:36;;;;;;;2.67;1.30;;;;;;;17.97;85.39;99596.75;4921730;29;20563;-95
2023/09/21 03:27:28;;;;;;;3.85;1.55;;;;;;;17.96;86.01;99608.84;4921919;29;20584;-96
2023/09/21 03:29:54;;;;;;;4.38;1.40;;;;;;;17.94;85.61;99602.00;4916863;29;20039;-95
2023/09/21 03:32:20;;;;;;;2.50;1.47;;;;;;;17.90;86.17;99603.72;4921861;29;20123;-94
2023/09/21 03:34:48;;;;;;;2.72;1.17;;;;;;;17.86;86.17;99601.53;4921187;29;20189;-95
2023/09/21 03:37:20;;;;;;;3.13;1.40;;;;;;;17.85;86.40;99599.91;4918324;29;20078;-95
2023/09/21 03:39:50;;;;;;;2.67;1.25;;;;;;;17.84;87.16;99602.94;4922067;29;20038;-95
2023/09/21 03:42:41;;;;;;;3.40;1.60;;;;;;;17.86;86.99;99607.03;4921688;29;20118;-95
2023/09/21 03:45:13;;;;;;;4.93;1.60;;;;;;;17.88;86.43;99604.00;4911277;29;20044;-94
2023/09/21 03:47:44;;;;;;;3.28;2.00;;;;;;;17.90;86.52;99590.81;4921722;29;20046;-95
2023/09/21 03:50:19;;;;;;;2.70;1.23;;;;;;;17.92;86.67;99587.78;4907338;29;20032;-94
2023/09/21 03:53:19;;;;;;;3.22;1.25;;;;;;;17.91;86.46;99589.72;4921582;29;20034;-95
2023/09/21 03:55:56;;;;;;;3.90;1.30;;;;;;;17.92;86.75;99585.81;4921088;29;20043;-95
2023/09/21 03:58:23;;;;;;;2.80;1.33;;;;;;;17.95;86.33;99584.44;4921262;29;20087;-94
2023/09/21 04:00:54;;;;;;;1.90;1.33;;;;;;;17.99;86.63;99583.53;4905437;29;20047;-95
2023/09/21 04:03:28;;;;;;;3.72;1.38;;;;;;;18.01;86.54;99577.75;4906166;29;20079;-94
2023/09/21 04:06:07;;;;;;;3.42;1.38;;;;;;;18.00;86.52;99576.94;4920936;29;20032;-94
2023/09/21 04:08:36;;;;;;;4.77;1.80;;;;;;;18.04;86.61;99571.66;4921944;29;20122;-94
2023/09/21 04:11:09;;;;;;;1.80;1.52;;;;;;;18.08;85.86;99571.91;4920934;29;20027;-95
2023/09/21 04:13:40;;;;;;;2.25;1.27;;;;;;;18.13;85.82;99575.41;4920993;29;20035;-94
2023/09/21 04:16:08;;;;;;;2.22;1.30;;;;;;;18.13;86.66;99577.31;4905703;29;20044;-94
2023/09/21 04:18:42;;;;;;;4.97;1.70;;;;;;;17.94;88.82;99582.78;4904965;29;20043;-95
2023/09/21 04:21:17;;;;;;;3.60;1.50;;;;;;;17.81;88.34;99578.84;4921047;29;20038;-94
2023/09/21 04:23:47;;;;;;;2.88;1.67;;;;;;;17.92;87.80;99576.78;4920857;29;20035;-95
2023/09/21 04:26:29;;;;;;;4.88;1.60;;;;;;;18.01;87.28;99580.50;4905042;29;20043;-94
2023/09/21 04:28:55;;;;;;;2.80;1.20;;;;;;;18.09;86.95;99576.28;4919733;29;20051;-94
2023/09/21 04:31:24;;;;;;;3.47;1.73;;;;;;;18.12;87.06;99572.97;4920979;29;20086;-95
2023/09/21 04:33:51;;;;;;;2.50;1.23;;;;;;;18.12;87.04;99567.47;4920669;29;20046;-94
2023/09/21 04:36:25;;;;;;;2.22;1.40;;;;;;;18.13;87.04;99571.81;4905012;29;20039;-94
2023/09/21 04:38:53;;;;;;;4.75;1.60;;;;;;;18.15;87.24;99569.63;4902027;29;20056;-95
2023/09/21 04:41:27;;;;;;;5.13;1.50;;;;;;;18.17;86.82;99570.97;4917338;29;20040;-95
2023/09/21 04:43:56;;;;;;;3.65;1.50;;;;;;;18.19;87.32;99570.66;4918253;29;20031;-95
2023/09/21 04:46:22;;;;;;;2.97;1.47;;;;;;;18.17;87.78;99572.88;4917431;29;20036;-94
2023/09/21 04:49:24;;;;;;;2.42;1.48;;;;;;;18.10;88.31;99556.78;4916265;29;20436;-95
2023/09/21 04:52:10;;;;;;;3.65;1.50;;;;;;;17.75;91.83;99567.09;4902294;29;20036;-94
2023/09/21 04:54:35;;;;;;;2.90;1.57;;;;;;;17.41;94.90;99570.00;4901178;29;20131;-93
2023/09/21 05:00:10;;;;;;;4.20;1.60;;;;;;;17.52;94.06;99568.75;4916645;29;20044;-94
2023/09/21 05:02:42;;;;;;;4.82;1.73;;;;;;;17.47;95.90;99571.59;4917608;29;20035;-94
2023/09/21 05:05:28;;;;;;;3.78;1.63;;;;;;;17.17;97.09;99563.41;4902236;29;20036;-95
2023/09/21 05:08:04;;;;;;;5.35;1.50;;;;;;;17.23;96.90;99568.81;4917219;29;20038;-94
2023/09/21 05:10:38;;;;;;;3.22;1.33;;;;;;;17.39;95.89;99562.09;4886214;29;20043;-94
2023/09/21 05:13:10;;;;;;;2.97;1.60;;;;;;;17.53;95.41;99549.28;4917300;29;20089;-94
2023/09/21 05:15:51;;;;;;;3.30;1.50;;;;;;;17.63;94.57;99544.78;4901889;29;20485;-95
2023/09/21 05:18:27;;;;;;;4.63;1.50;;;;;;;17.73;93.75;99543.81;4917145;29;20063;-95
2023/09/21 05:21:04;;;;;;;2.47;1.40;;;;;;;17.80;93.15;99545.09;4901763;29;20139;-91
2023/09/21 05:23:37;;;;;;;2.55;1.50;;;;;;;17.89;92.69;99545.25;4888804;29;20047;-96
2023/09/21 05:26:03;;;;;;;2.83;1.60;;;;;;;18.02;92.16;99547.28;5425579;23;20056;-96
2023/09/21 05:28:28;;;;;;;3.25;1.70;;;;;;;18.09;92.20;99548.84;4944745;29;20043;-92
2023/09/21 05:30:54;;;;;;;4.73;1.83;;;;;;;18.14;91.23;99538.59;4954307;29;20491;-95
2023/09/21 05:33:35;;;;;;;;;;;;;;;;;;;;;
2023/09/21 05:36:04;;;;;;;3.42;1.55;;;;;;;18.26;91.27;99545.56;4956054;29;20027;-92
2023/09/21 05:38:34;;;;;;;5.05;1.90;;;;;;;18.33;90.95;99555.03;4954355;29;20035;-91
2023/09/21 05:41:06;;;;;;;2.85;1.63;;;;;;;18.31;91.20;99540.81;4954061;29;20027;-93
2023/09/21 05:43:34;;;;;;;3.20;1.70;;;;;;;18.39;91.11;99544.81;4954356;29;20031;-91
2023/09/21 05:46:10;;;;;;;4.15;1.55;;;;;;;18.43;91.32;99542.28;4953740;29;20039;-91
2023/09/21 05:48:38;;;;;;;2.15;1.30;;;;;;;18.35;91.29;99547.34;4954360;29;20035;-91
2023/09/21 05:51:10;;;;;;;7.20;1.60;;;;;;;18.30;92.51;99544.66;4954164;29;20122;-91
2023/09/21 05:53:41;;;;;;;3.65;1.60;;;;;;;18.22;93.75;99546.16;4953927;29;20493;-90
2023/09/21 05:56:16;;;;;;;4.20;1.90;;;;;;;18.07;94.70;99538.16;4953953;29;20502;-91
2023/09/21 05:58:54;;;;;;;3.90;1.65;;;;;;;17.63;98.67;99550.28;4953572;29;20024;-91
2023/09/21 06:01:22;;;;;;;3.40;1.45;;;;;;;17.30;100.00;99555.59;4926235;29;20032;-92
2023/09/21 06:03:52;;;;;;;3.05;1.63;;;;;;;17.08;100.00;99547.88;4958346;29;20390;-92
2023/09/21 06:06:20;;;;;;;3.58;1.60;;;;;;;16.91;100.00;99559.31;4957561;29;20047;-92
2023/09/21 06:08:55;;;;;;;4.50;1.73;;;;;;;16.63;100.00;99554.31;4942300;29;20468;-93
2023/09/21 06:11:33;;;;;;;4.18;2.00;;;;;;;16.52;100.00;99557.41;4957848;29;20063;-94
2023/09/21 06:14:02;;;;;;;6.60;2.05;;;;;;;16.23;100.00;99548.06;4958567;29;20134;-92
2023/09/21 06:16:37;;;;;;;4.22;2.20;;;;;;;16.04;100.00;99553.38;4930265;29;20043;-94
2023/09/21 06:19:11;;;;;;;6.55;2.10;;;;;;;15.83;100.00;99560.91;4939069;29;20031;-93
2023/09/21 06:21:50;;;;;;;;;;;;;;;;;;;;;
2023/09/21 06:24:18;;;;;;;2.60;1.77;;;;;;;15.53;100.00;99562.66;4940008;29;20032;-93
2023/09/21 06:26:53;;;;;;;4.05;1.80;;;;;;;15.46;100.00;99547.63;4952067;29;20081;-92
2023/09/21 06:29:28;;;;;;;6.45;2.60;;;;;;;15.41;100.00;99562.97;4956937;29;20119;-92
2023/09/21 06:32:00;;;;;;;3.55;2.30;;;;;;;15.36;100.00;99562.97;4942584;29;20046;-91
2023/09/21 06:34:30;;;;;;;6.37;2.47;;;;;;;15.37;100.00;99574.75;4957523;29;20030;-91
2023/09/21 06:36:58;;;;;;;4.13;2.30;;;;;;;15.40;100.00;99566.00;4957783;29;20027;-90
2023/09/21 06:39:34;;;;;;;4.15;1.88;;;;;;;15.43;100.00;99565.44;4957025;29;20055;-91
2023/09/21 06:42:20;;;;;;;6.25;2.40;;;;;;;15.34;100.00;99572.56;4942355;29;20031;-90
2023/09/21 06:44:54;;;;;;;3.60;2.28;;;;;;;15.39;100.00;99567.09;4957502;29;20035;-91
2023/09/21 06:47:30;;;;;;;6.37;2.50;;;;;;;15.40;100.00;99577.72;4956442;29;20493;-90
2023/09/21 06:50:09;;;;;;;5.38;2.55;;;;;;;15.36;100.00;99579.38;4956585;29;20118;-90
2023/09/21 06:53:03;;;;;;;4.43;2.63;;;;;;;15.32;100.00;99589.22;4943878;29;20051;-91
2023/09/21 06:55:32;;;;;;;6.65;2.70;;;;;;;15.34;100.00;99589.78;4959842;29;20039;-90
2023/09/21 06:58:00;;;;;;;6.07;2.67;;;;;;;15.33;100.00;99590.06;4955996;29;20030;-89
2023/09/21 07:00:25;;;;;;;5.33;2.90;;;;;;;15.31;100.00;99594.97;4956850;29;20039;-90
2023/09/21 07:02:53;;;;;;;6.50;2.85;;;;;;;15.28;100.00;99593.63;4956277;29;20094;-89
2023/09/21 07:05:19;;;;;;;5.83;3.20;;;;;;;15.30;100.00;99591.44;4956435;29;20547;-90
2023/09/21 07:07:46;;;;;;;5.82;3.08;;;;;;;15.27;100.00;99586.53;4956086;29;20122;-91
2023/09/21 07:10:16;;;;;;;6.45;3.28;;;;;;;15.25;100.00;99592.25;4956927;29;20031;-91
2023/09/21 07:12:45;;;;;;;6.93;3.80;;;;;;;15.29;100.00;99592.50;4956960;28;20445;-90
2023/09/21 07:15:12;;;;;;;8.40;2.85;;;;;;;15.27;100.00;99581.88;4940656;29;20046;-91
2023/09/21 07:17:38;;;;;;;8.13;3.10;;;;;;;15.29;100.00;99578.03;4956379;29;20484;-91
2023/09/21 07:20:07;;;;;;;6.25;3.05;;;;;;;15.30;100.00;99574.22;4956566;29;20038;-90
2023/09/21 07:22:33;;;;;;;5.88;3.80;;;;;;;15.37;100.00;99572.81;4958061;28;20090;-90
2023/09/21 07:25:03;;;;;;;6.93;4.07;;;;;;;15.41;100.00;99578.53;4955837;29;20443;-90
2023/09/21 07:27:37;;;;;;;5.28;3.47;;;;;;;15.38;100.00;99573.63;4955542;29;20055;-91
2023/09/21 07:30:03;;;;;;;7.88;3.88;;;;;;;15.37;100.00;99575.56;4955461;29;20049;-90
2023/09/21 07:32:39;;;;;;;6.20;3.87;;;;;;;15.39;100.00;99576.09;4956191;29;20118;-90
2023/09/21 07:35:06;;;;;;;7.45;3.42;;;;;;;15.42;100.00;99577.44;4955779;29;20035;-90
2023/09/21 07:37:49;;;;;;;;;;;;;;;;;;;;;
2023/09/21 07:40:21;;;;;;;8.90;3.58;;;;;;;15.37;100.00;99582.94;4958384;29;20035;-90
2023/09/21 07:42:51;;;;;;;6.10;3.60;;;;;;;15.36;100.00;99578.56;4955773;29;20380;-90
2023/09/21 07:45:22;;;;;;;5.77;3.70;;;;;;;15.37;100.00;99583.75;4956271;29;20107;-91
2023/09/21 07:47:52;;;;;;;7.07;3.40;;;;;;;15.41;100.00;99584.00;4956133;29;20031;-91
2023/09/21 07:50:23;;;;;;;9.43;3.92;;;;;;;15.42;100.00;99589.19;4956398;29;20143;-91
2023/09/21 07:52:51;;;;;;;10.23;4.13;;;;;;;15.41;100.00;99594.94;4956849;29;20039;-92
2023/09/21 07:55:23;;;;;;;6.40;4.20;;;;;;;15.47;100.00;99587.53;4956385;29;20161;-92
2023/09/21 07:57:54;;;;;;;6.57;4.40;;;;;;;15.49;100.00;99594.38;4956829;29;20066;-92
2023/09/21 08:00:26;;;;;;;7.85;4.68;;;;;;;15.54;100.00;99594.34;4940008;29;20078;-91
2023/09/21 08:02:56;;;;;;;9.75;5.28;;;;;;;15.53;100.00;99598.19;4955612;29;20139;-91
2023/09/21 08:05:27;;;;;;;6.55;4.53;;;;;;;15.54;100.00;99608.00;4935214;29;20055;-93
2023/09/21 08:07:58;;;;;;;7.30;4.50;;;;;;;15.50;100.00;99617.88;4917763;29;20453;-91
2023/09/21 08:11:02;;;;;;;;;;;;;;;;;;;;;
2023/09/21 08:13:20;;;;;;;7.30;4.47;;;;;;;15.46;100.00;99624.16;4934122;29;20046;-91
2023/09/21 08:15:48;;;;;;;7.50;4.30;;;;;;;15.48;100.00;99636.47;4925152;29;20084;-92
2023/09/21 08:18:16;;;;;;;5.82;3.97;;;;;;;15.46;100.00;99614.06;4916866;29;20063;-91
2023/09/21 08:20:42;;;;;;;6.38;4.25;;;;;;;15.45;100.00;99617.88;4917592;29;20480;-91
2023/09/21 08:23:17;;;;;;;5.93;4.47;;;;;;;15.45;100.00;99623.34;4917185;29;20025;-90
2023/09/21 08:25:45;;;;;;;5.82;4.40;;;;;;;15.38;100.00;99633.75;4921973;29;20044;-90
2023/09/21 08:28:12;;;;;;;5.10;4.03;;;;;;;15.34;100.00;99644.44;4936047;29;20047;-91
2023/09/21 08:30:38;;;;;;;9.27;4.47;;;;;;;15.30;100.00;99643.34;4937370;29;20043;-92
2023/09/21 08:33:07;;;;;;;8.63;4.30;;;;;;;15.30;100.00;99654.28;4936228;29;20491;-91
2023/09/21 08:35:37;;;;;;;6.25;3.78;;;;;;;15.27;100.00;99660.28;4935458;29;20118;-93
2023/09/21 08:38:06;;;;;;;5.20;3.47;;;;;;;15.26;100.00;99669.56;4901862;29;20059;-92
2023/09/21 08:40:38;;;;;;;4.65;3.75;;;;;;;15.19;100.00;99658.94;4916895;29;20032;-92
2023/09/21 08:43:04;;;;;;;3.97;3.20;;;;;;;15.12;100.00;99655.66;4916738;29;20028;-91
2023/09/21 08:45:37;;;;;;;6.65;3.33;;;;;;;15.13;100.00;99670.94;4917105;29;20040;-92
2023/09/21 08:48:15;;;;;;;6.18;3.28;;;;;;;15.12;100.00;99671.22;4917270;29;20461;-92
2023/09/21 08:50:44;;;;;;;4.50;3.40;;;;;;;15.10;100.00;99676.97;4918469;29;20481;-92
2023/09/21 08:53:21;;;;;;;3.40;3.10;;;;;;;15.07;100.00;99682.97;4916879;29;20040;-92
2023/09/21 08:55:51;;;;;;;5.82;3.70;;;;;;;15.07;100.00;99682.97;4900914;29;20043;-92
2023/09/21 08:58:23;;;;;;;5.70;3.53;;;;;;;15.06;100.00;99673.97;4907138;29;20028;-91
2023/09/21 09:00:56;;;;;;;11.60;3.25;;;;;;;15.03;100.00;99674.53;4929682;29;20042;-92
2023/09/21 09:03:32;;;;;;;5.43;2.97;;;;;;;15.02;100.00;99677.53;4935357;29;20118;-91
2023/09/21 09:06:00;;;;;;;5.40;2.83;;;;;;;14.99;100.00;99672.63;4934622;29;20126;-93
2023/09/21 09:08:29;;;;;;;6.38;2.10;;;;;;;14.96;100.00;99654.06;4923763;29;20043;-91
2023/09/21 09:10:54;;;;;;;3.78;2.17;;;;;;;14.99;100.00;99661.69;4917274;29;20032;-93
2023/09/21 09:13:30;;;;;;;4.37;2.10;;;;;;;15.08;100.00;99673.69;4930778;29;20031;-93
2023/09/21 09:15:58;;;;;;;2.35;1.70;;;;;;;15.11;100.00;99673.16;4940052;29;20050;-93
2023/09/21 09:18:30;;;;;;;4.05;2.60;;;;;;;15.09;100.00;99678.88;4934767;29;20051;-92
2023/09/21 09:21:01;;;;;;;2.63;1.88;;;;;;;15.11;100.00;99675.06;4935646;29;20069;-92
2023/09/21 09:23:45;;;;;;;2.20;1.60;;;;;;;15.14;100.00;99669.06;4935886;29;20118;-92
2023/09/21 09:26:13;;;;;;;2.00;1.40;;;;;;;15.27;100.00;99649.38;4935889;29;20110;-92
2023/09/21 09:28:41;;;;;;;2.50;1.50;;;;;;;15.36;100.00;99661.38;4936692;29;20035;-92
2023/09/21 09:31:14;;;;;;;2.03;1.33;;;;;;;15.36;100.00;99655.09;4935834;29;20032;-92
2023/09/21 09:33:47;;;;;;;2.63;1.40;;;;;;;15.46;100.00;99646.03;4935721;29;20035;-92
2023/09/21 09:36:25;;;;;;;3.23;1.57;;;;;;;15.50;100.00;99650.69;4938517;29;20119;-92
2023/09/21 09:38:55;;;;;;;5.75;1.50;;;;;;;15.64;100.00;99647.38;4939039;29;20067;-92
2023/09/21 09:41:21;;;;;;;2.80;1.40;;;;;;;15.76;100.00;99639.66;4939151;29;20039;-92
2023/09/21 09:44:17;;;;;;;;;;;;;;;;;;;;;
2023/09/21 09:46:49;;;;;;;5.65;2.22;;;;;;;15.99;100.00;99646.44;4940391;29;20032;-91
2023/09/21 09:49:20;;;;;;;4.50;2.35;;;;;;;16.06;100.00;99640.66;4908319;29;20043;-90
2023/09/21 09:51:54;;;;;;;2.88;2.00;;;;;;;16.21;100.00;99646.06;4938882;29;20071;-90
2023/09/21 09:54:31;;;;;;;5.75;2.55;;;;;;;16.27;100.00;99649.59;4939866;29;20452;-90
2023/09/21 09:57:13;;;;;;;;;;;;;;;;;;;;;
2023/09/21 09:59:47;;;;;;;4.85;2.88;;;;;;;16.45;100.00;99637.16;4939503;29;20032;-90
2023/09/21 10:02:17;;;;;;;3.72;3.03;;;;;;;16.51;100.00;99638.75;4923345;29;20032;-90
2023/09/21 10:04:46;;;;;;;4.97;2.75;;;;;;;16.54;100.00;99637.38;4937958;29;20059;-91
2023/09/21 10:07:19;;;;;;;4.47;3.17;;;;;;;16.62;100.00;99623.88;4938572;29;20045;-92
2023/09/21 10:09:58;;;;;;;4.43;3.13;;;;;;;16.66;100.00;99624.13;4939911;29;20074;-92
2023/09/21 10:12:29;;;;;;;6.60;3.00;;;;;;;16.73;100.00;99624.63;4939519;29;20035;-92
2023/09/21 10:14:57;;;;;;;4.45;3.25;;;;;;;16.80;100.00;99614.16;4939509;29;20034;-91
2023/09/21 10:17:48;;;;;;;6.03;3.40;;;;;;;16.81;100.00;99618.50;4938718;29;20103;-92
2023/09/21 10:20:24;;;;;;;6.85;3.70;;;;;;;16.95;100.00;99612.41;4939559;29;20040;-92
2023/09/21 10:22:58;;;;;;;5.60;4.40;;;;;;;17.08;100.00;99617.22;4937834;29;20080;-91
2023/09/21 10:25:45;;;;;;;5.25;4.05;;;;;;;17.14;100.00;99615.22;4938793;29;20122;-92
2023/09/21 10:28:34;;;;;;;6.38;3.97;;;;;;;17.12;100.00;99614.72;4941036;29;20117;-91
2023/09/21 10:31:06;;;;;;;6.38;3.50;;;;;;;17.01;100.00;99619.47;4941135;29;20035;-91
2023/09/21 10:33:54;;;;;;;6.53;3.55;;;;;;;16.93;100.00;99620.09;4939810;29;20043;-90
2023/09/21 10:36:36;;;;;;;4.00;3.00;;;;;;;16.82;100.00;99600.97;4925434;29;20039;-91
2023/09/21 10:39:10;;;;;;;4.22;2.60;;;;;;;16.75;100.00;99605.16;4941947;29;20083;-91
2023/09/21 10:41:45;;;;;;;4.35;2.55;;;;;;;16.74;100.00;99600.78;4941463;29;20121;-92
2023/09/21 10:45:06;;;;;;;;;;;;;;;;;;;;;
2023/09/21 10:47:44;;;;;;;3.72;2.35;;;;;;;16.71;100.00;99599.44;4940762;29;20045;-94
2023/09/21 10:50:21;;;;;;;3.63;2.23;;;;;;;16.74;100.00;99593.41;4941342;29;20039;-93
2023/09/21 10:53:01;;;;;;;;;;;;;;;;;;;;;
2023/09/21 10:55:34;;;;;;;2.67;1.92;;;;;;;16.60;100.00;99593.22;4958853;29;20375;-92
2023/09/21 10:58:02;;;;;;;3.80;2.25;;;;;;;16.62;100.00;99585.56;4925929;29;20391;-96
2023/09/21 11:00:38;;;;;;;5.75;2.53;;;;;;;16.69;100.00;99573.44;4941153;29;20046;-92
2023/09/21 11:03:12;;;;;;;6.90;2.00;;;;;;;16.69;100.00;99559.75;4926217;29;20054;-93
2023/09/21 11:05:45;;;;;;;5.03;2.30;;;;;;;16.75;100.00;99561.34;4941096;29;20066;-92
2023/09/21 11:08:24;;;;;;;2.72;2.00;;;;;;;16.71;100.00;99561.09;4941135;29;20062;-93
2023/09/21 11:10:53;;;;;;;4.93;2.50;;;;;;;16.72;100.00;99557.25;4943059;29;20117;-92
2023/09/21 11:13:24;;;;;;;4.38;2.03;;;;;;;16.77;100.00;99561.84;4941308;29;20105;-92
2023/09/21 11:15:55;;;;;;;4.03;2.33;;;;;;;16.76;100.00;99552.84;4941037;29;20027;-92
2023/09/21 11:18:24;;;;;;;2.50;1.90;;;;;;;16.72;100.00;99550.97;4941187;29;20106;-92
2023/09/21 11:21:13;;;;;;;3.17;1.98;;;;;;;16.69;100.00;99546.06;4941105;29;20059;-92
2023/09/21 11:23:44;;;;;;;4.68;2.05;;;;;;;16.73;100.00;99552.59;4941402;29;20340;-93
2023/09/21 11:26:14;;;;;;;4.32;1.45;;;;;;;16.72;100.00;99535.34;4940797;29;20050;-93
2023/09/21 11:28:46;;;;;;;4.40;2.13;;;;;;;16.70;100.00;99564.09;4940576;29;20121;-94
2023/09/21 11:31:12;;;;;;;2.80;2.00;;;;;;;16.59;100.00;99604.47;4940540;29;20032;-94
2023/09/21 11:33:57;;;;;;;4.07;2.50;;;;;;;16.40;100.00;99576.94;4940581;29;20081;-95
2023/09/21 11:36:23;;;;;;;3.92;2.72;;;;;;;16.22;100.00;99590.19;4957787;29;20035;-94
2023/09/21 11:39:00;;;;;;;3.40;2.57;;;;;;;16.08;100.00;99609.19;4940696;29;20090;-94
2023/09/21 11:41:32;;;;;;;3.92;2.33;;;;;;;15.91;100.00;99611.44;4925790;29;20063;-95
2023/09/21 11:44:04;;;;;;;2.50;2.30;;;;;;;15.76;100.00;99604.91;4941096;29;20034;-95
2023/09/21 11:46:45;;;;;;;;;;;;;;;;;;;;;
2023/09/21 11:49:14;;;;;;;1.50;1.40;;;;;;;15.48;100.00;99608.31;4942138;29;20042;-94
2023/09/21 11:51:46;;;;;;;2.10;1.50;;;;;;;15.33;100.00;99609.19;4923815;29;20047;-93
2023/09/21 11:54:35;;;;;;;2.58;1.23;;;;;;;15.28;100.00;99612.75;4940706;29;20388;-94
2023/09/21 11:57:09;;;;;;;2.38;1.20;;;;;;;15.35;100.00;99613.25;4940866;29;20464;-94
2023/09/21 11:59:53;;;;;;;;;;;;;;;;;;;;;
2023/09/21 12:02:21;;;;;;;2.67;1.23;;;;;;;15.24;100.00;99617.94;4957430;29;20050;-95
2023/09/21 12:05:19;;;;;;;3.47;1.27;;;;;;;15.22;100.00;99622.03;4936151;29;20042;-96
2023/09/21 12:07:56;;;;;;;2.90;1.83;;;;;;;15.34;100.00;99613.53;4938403;29;20055;-96
2023/09/21 12:10:40;;;;;;;2.08;1.67;;;;;;;15.47;100.00;99593.81;4937424;29;20161;-96
2023/09/21 12:24:10;;;;;;;;;;;;;;;;;;;;;
2023/09/21 12:27:20;;;;;;;;;;;;;;;;;;;;;
2023/09/21 12:29:58;;;;;;;3.30;2.83;;;;;;;15.63;100.00;99571.91;4883545;29;20525;-96
2023/09/21 12:32:49;;;;;;;5.25;2.33;;;;;;;15.55;100.00;99578.78;4887990;29;20032;-95
2023/09/21 12:35:25;;;;;;;5.20;3.90;;;;;;;15.69;100.00;99577.06;4907050;29;20082;-96
2023/09/21 12:37:56;;;;;;;3.22;2.40;;;;;;;15.76;100.00;99587.69;4923204;29;20134;-95
2023/09/21 12:40:24;;;;;;;2.80;2.17;;;;;;;15.84;100.00;99576.22;4942144;29;20028;-95
2023/09/21 12:42:55;;;;;;;3.72;2.65;;;;;;;15.98;100.00;99581.88;4926040;29;20040;-94